Aktuální počasí v Česku a ve světě - METAR

Seznam meteostanic umístěných nejčasteji na letišti v ČR a ve světě

Vyhledat místa podle abecedy:
A B C D E F G H I J K L M N O P Q R S T U V W X Y Z

Filtrovat:

ID stanice:
a/nebo
Název místa (fulltext):
 
Místo (ID)Naposledy načteno 
Jakarta (WIII) 19.06.2021 16:00 UTC Zobrazit METAR
WIII 191600Z 02005KT 3000 HZ SCT020 25/23 Q1011 NOSIG
Jerusalem (LLJR) Zatím nenačteno  
Joensuu (EFJO) 19.06.2021 15:50 UTC Zobrazit METAR
EFJO 191550Z AUTO 01003KT 320V040 CAVOK 22/16 Q1017
Johannesburg (FAJS) 09.01.2013 23:00 UTC Zobrazit METAR
FAJS 092300Z 01010KT 340V040 CAVOK 22/11 Q1020 NOSIG
Johnston I (PJON) Zatím nenačteno  
Reklama

Reklama


Newslettter

Počasí na Váš email

Emaily jsou bez reklamy a bez spamu



Odhlásit newsletter



Kontaktujte nás

Kontaktujte Slunečno.cz

Kontaktujte provozovatele Slunecno.cz

Další české internetové stránky (nejen) o počasí najdete v katalogu TOPlist - weby o počasí nebo vyhledejte na internetu, co jste tu na Počasí Slunečno Slunečnu zatím nenašli:
Přidat mezzi oblíbené stránkyPřidat Slunečno.cz do oblíbených | Nastavit jako HOMEPAGENastavit Slunečno.cz jako HOMEPAGE

Posunout stránku nahoru Posunout stránku nahoru Posunout stránku nahoru
Reklama